createdAt,value
2018-07-15T00:00:49.700Z,21.40
2018-07-15T00:03:17.954Z,21.40
2018-07-15T00:05:46.203Z,21.20
2018-07-15T00:08:14.440Z,21.30
2018-07-15T00:10:45.316Z,21.20
2018-07-15T00:13:14.392Z,21.10
2018-07-15T00:15:43.710Z,21.10
2018-07-15T00:18:11.989Z,21.00
2018-07-15T00:20:40.206Z,21.00
2018-07-15T00:23:08.415Z,20.90
2018-07-15T00:25:37.013Z,21.00
2018-07-15T00:28:05.624Z,20.90
2018-07-15T00:30:34.567Z,20.80
2018-07-15T00:35:30.831Z,20.90
2018-07-15T00:37:59.072Z,20.80
2018-07-15T00:40:27.346Z,20.80
2018-07-15T00:42:55.632Z,20.80
2018-07-15T00:45:23.905Z,20.70
2018-07-15T00:47:52.139Z,20.60
2018-07-15T00:50:20.394Z,20.50
2018-07-15T00:52:48.633Z,20.50
2018-07-15T00:55:16.883Z,20.40
2018-07-15T00:57:45.130Z,20.50
2018-07-15T01:00:13.407Z,20.40
2018-07-15T01:02:41.701Z,20.30
2018-07-15T01:05:09.948Z,20.20
2018-07-15T01:07:38.259Z,20.20
2018-07-15T01:10:06.578Z,20.10
2018-07-15T01:12:34.867Z,20.10
2018-07-15T01:15:03.122Z,20.10
2018-07-15T01:17:31.376Z,20.10
2018-07-15T01:19:59.620Z,20.10
2018-07-15T01:22:27.843Z,20.10
2018-07-15T01:24:56.096Z,20.00
2018-07-15T01:27:24.432Z,20.00
2018-07-15T01:29:52.668Z,20.00
2018-07-15T01:32:20.991Z,20.00
2018-07-15T01:34:49.263Z,20.00
2018-07-15T01:37:17.679Z,19.90
2018-07-15T01:39:45.958Z,19.80
2018-07-15T01:42:14.242Z,19.70
2018-07-15T01:44:42.476Z,19.80
2018-07-15T01:47:10.787Z,19.70
2018-07-15T01:49:39.047Z,19.80
2018-07-15T01:52:07.606Z,19.70
2018-07-15T01:54:35.843Z,19.70
2018-07-15T01:57:04.081Z,19.60
2018-07-15T01:59:32.403Z,19.60
2018-07-15T02:02:00.669Z,19.60
2018-07-15T02:04:28.924Z,19.50
2018-07-15T02:06:57.159Z,19.60
2018-07-15T02:09:25.443Z,19.50
2018-07-15T02:11:53.833Z,19.50
2018-07-15T02:14:22.100Z,19.40
2018-07-15T02:16:50.351Z,19.40
2018-07-15T02:19:18.608Z,19.40
2018-07-15T02:21:46.887Z,19.40
2018-07-15T02:24:15.209Z,19.30
2018-07-15T02:26:43.498Z,19.20
2018-07-15T02:29:11.746Z,19.20
2018-07-15T02:31:40.041Z,19.20
2018-07-15T02:34:09.327Z,19.10
2018-07-15T02:36:37.707Z,19.10
2018-07-15T02:39:07.630Z,19.10
2018-07-15T02:41:35.959Z,19.00
2018-07-15T02:44:04.437Z,19.00
2018-07-15T02:46:32.655Z,19.00
2018-07-15T02:49:00.962Z,19.00
2018-07-15T02:51:29.225Z,19.00
2018-07-15T02:53:57.495Z,18.90
2018-07-15T02:56:25.799Z,18.80
2018-07-15T02:58:54.025Z,18.80
2018-07-15T03:01:22.252Z,18.70
2018-07-15T03:03:50.569Z,18.70
2018-07-15T03:06:18.788Z,18.70
2018-07-15T03:08:47.061Z,18.70
2018-07-15T03:11:15.316Z,18.70
2018-07-15T03:13:43.601Z,18.60
2018-07-15T03:16:12.390Z,18.60
2018-07-15T03:18:40.635Z,18.60
2018-07-15T03:21:08.884Z,18.60
2018-07-15T03:23:37.170Z,18.60
2018-07-15T03:26:05.452Z,18.60
2018-07-15T03:28:33.773Z,18.50
2018-07-15T03:31:02.041Z,18.50
2018-07-15T03:33:30.263Z,18.60
2018-07-15T03:38:26.563Z,18.50
2018-07-15T03:40:54.787Z,18.50
2018-07-15T03:43:23.056Z,18.50
2018-07-15T03:45:51.357Z,18.40
2018-07-15T03:48:19.603Z,18.50
2018-07-15T03:50:47.875Z,18.50
2018-07-15T03:53:16.125Z,18.40
2018-07-15T03:55:44.348Z,18.40
2018-07-15T03:58:13.599Z,18.40
2018-07-15T04:00:41.858Z,18.40
2018-07-15T04:03:10.101Z,18.40
2018-07-15T04:05:38.360Z,18.40
2018-07-15T04:08:07.165Z,18.40
2018-07-15T04:10:35.372Z,18.30
2018-07-15T04:13:09.980Z,18.40
2018-07-15T04:15:38.247Z,18.40
2018-07-15T04:18:07.139Z,18.50
2018-07-15T04:20:36.463Z,18.50
2018-07-15T04:23:05.589Z,18.60
2018-07-15T04:25:34.758Z,18.60
2018-07-15T04:28:03.830Z,18.50
2018-07-15T04:30:32.168Z,18.40
2018-07-15T04:33:00.703Z,18.30
2018-07-15T04:35:28.974Z,18.40
2018-07-15T04:37:57.302Z,18.60
2018-07-15T04:40:25.569Z,18.70
2018-07-15T04:42:53.805Z,18.70
2018-07-15T04:45:22.077Z,18.60
2018-07-15T04:47:50.670Z,18.80
2018-07-15T04:50:18.919Z,18.90
2018-07-15T04:52:47.739Z,19.00
2018-07-15T04:55:16.015Z,19.10
2018-07-15T04:57:44.282Z,19.20
2018-07-15T05:00:12.599Z,19.30
2018-07-15T05:02:41.178Z,19.30
2018-07-15T05:05:09.427Z,19.10
2018-07-15T05:07:37.978Z,19.00
2018-07-15T05:10:06.400Z,18.90
2018-07-15T05:12:34.644Z,18.90
2018-07-15T05:15:03.127Z,18.90
2018-07-15T05:17:31.480Z,19.00
2018-07-15T05:19:59.755Z,19.00
2018-07-15T05:22:28.021Z,18.90
2018-07-15T05:24:56.290Z,18.90
2018-07-15T05:27:24.550Z,18.90
2018-07-15T05:29:52.844Z,18.80
2018-07-15T05:32:21.163Z,18.80
2018-07-15T05:34:49.445Z,18.80
2018-07-15T05:37:17.659Z,18.90
2018-07-15T05:39:46.460Z,19.10
2018-07-15T05:42:14.722Z,19.10
2018-07-15T05:44:42.988Z,19.10
2018-07-15T05:47:11.299Z,19.10
2018-07-15T05:49:39.599Z,19.10
2018-07-15T05:52:07.866Z,19.10
2018-07-15T05:57:04.156Z,19.50
2018-07-15T05:59:32.377Z,19.70
2018-07-15T06:02:00.635Z,19.80
2018-07-15T06:04:28.881Z,19.90
2018-07-15T06:06:57.144Z,20.00
2018-07-15T06:09:25.408Z,20.10
2018-07-15T06:11:53.688Z,20.10
2018-07-15T06:14:21.924Z,20.10
2018-07-15T06:16:50.217Z,20.20
2018-07-15T06:21:46.526Z,20.40
2018-07-15T06:24:14.802Z,20.50
2018-07-15T06:26:43.089Z,20.70
2018-07-15T06:29:11.427Z,20.80
2018-07-15T06:31:39.657Z,20.80
2018-07-15T06:34:07.910Z,21.00
2018-07-15T06:36:36.268Z,21.00
2018-07-15T06:39:07.156Z,21.20
2018-07-15T06:44:03.763Z,21.50
2018-07-15T06:46:32.041Z,21.70
2018-07-15T06:49:00.287Z,21.90
2018-07-15T06:51:28.564Z,22.30
2018-07-15T06:53:56.858Z,22.60
2018-07-15T06:56:25.375Z,22.90
2018-07-15T06:58:53.607Z,23.40
2018-07-15T07:01:21.855Z,23.70
2018-07-15T07:03:50.113Z,24.40
2018-07-15T07:06:21.032Z,25.30
2018-07-15T07:08:49.622Z,26.20
2018-07-15T07:11:17.923Z,26.70
2018-07-15T07:13:46.344Z,27.30
2018-07-15T07:16:14.656Z,27.80
2018-07-15T07:18:43.164Z,28.30
2018-07-15T07:21:11.571Z,28.60
2018-07-15T07:23:39.830Z,28.60
2018-07-15T07:26:09.874Z,28.30
2018-07-15T07:28:38.120Z,28.90
2018-07-15T07:31:06.903Z,29.20
2018-07-15T07:33:35.110Z,29.40
2018-07-15T07:36:03.505Z,29.80
2018-07-15T07:38:31.810Z,30.10
2018-07-15T07:41:00.108Z,30.30
2018-07-15T07:43:28.381Z,30.30
2018-07-15T07:45:56.635Z,30.60
2018-07-15T07:48:24.888Z,30.30
2018-07-15T07:50:53.276Z,30.40
2018-07-15T07:55:50.445Z,31.00
2018-07-15T07:58:18.696Z,31.50
2018-07-15T08:00:47.040Z,31.80
2018-07-15T08:03:15.307Z,32.00
2018-07-15T08:05:43.590Z,32.40
2018-07-15T08:08:11.995Z,32.70
2018-07-15T08:10:40.280Z,33.60
2018-07-15T08:13:08.538Z,34.30
2018-07-15T08:15:36.823Z,33.80
2018-07-15T08:18:05.092Z,34.00
2018-07-15T08:20:33.375Z,34.50
2018-07-15T08:23:01.644Z,34.20
2018-07-15T08:25:30.023Z,34.60
2018-07-15T08:27:58.259Z,35.40
2018-07-15T08:30:38.321Z,35.30
2018-07-15T08:35:34.608Z,35.90
2018-07-15T08:38:02.906Z,36.20
2018-07-15T08:40:31.346Z,36.00
2018-07-15T08:42:59.664Z,36.10
2018-07-15T08:45:29.084Z,36.10
2018-07-15T08:47:57.463Z,35.50
2018-07-15T08:50:25.891Z,35.10
2018-07-15T08:52:54.195Z,35.40
2018-07-15T08:55:22.416Z,35.10
2018-07-15T08:57:50.709Z,35.80
2018-07-15T09:00:19.257Z,35.10
2018-07-15T09:02:49.264Z,36.10
2018-07-15T09:05:17.664Z,36.70
2018-07-15T09:10:14.300Z,38.50
2018-07-15T09:12:42.954Z,38.40
2018-07-15T09:15:11.178Z,39.00
2018-07-15T09:17:39.461Z,39.00
2018-07-15T09:20:07.942Z,39.60
2018-07-15T09:22:36.399Z,39.60
2018-07-15T09:25:04.735Z,40.30
2018-07-15T09:27:33.061Z,40.90
2018-07-15T09:32:29.931Z,39.20
2018-07-15T09:34:58.389Z,37.70
2018-07-15T09:37:27.131Z,37.30
2018-07-15T09:39:55.995Z,37.10
2018-07-15T09:42:24.674Z,37.60
2018-07-15T09:44:53.207Z,39.00
2018-07-15T09:47:21.559Z,40.00
2018-07-15T09:49:49.928Z,40.90
2018-07-15T09:52:19.530Z,41.30
2018-07-15T09:54:47.821Z,41.70
2018-07-15T09:57:16.217Z,42.10
2018-07-15T09:59:44.566Z,42.10
2018-07-15T10:02:12.824Z,40.90
2018-07-15T10:12:09.369Z,39.40
2018-07-15T10:14:37.781Z,39.10
2018-07-15T10:17:06.861Z,39.40
2018-07-15T10:19:36.577Z,39.30
2018-07-15T10:24:37.045Z,39.90
2018-07-15T10:27:06.686Z,40.10
2018-07-15T10:29:36.197Z,41.20
2018-07-15T10:32:05.420Z,40.40
2018-07-15T10:37:03.071Z,42.40
2018-07-15T10:39:31.580Z,43.30
2018-07-15T10:42:00.137Z,42.70
2018-07-15T10:44:28.802Z,41.90
2018-07-15T10:46:57.221Z,42.60
2018-07-15T10:49:25.776Z,42.80
2018-07-15T10:51:55.296Z,43.70
2018-07-15T10:54:23.957Z,44.20
2018-07-15T10:56:52.411Z,44.20
2018-07-15T10:59:20.919Z,44.40
2018-07-15T11:01:49.914Z,44.80
2018-07-15T11:04:18.397Z,45.30
2018-07-15T11:06:46.900Z,43.20
2018-07-15T11:09:15.367Z,41.10
2018-07-15T11:11:43.918Z,40.30
2018-07-15T11:14:12.429Z,39.60
2018-07-15T11:16:41.062Z,41.00
2018-07-15T11:19:09.443Z,41.50
2018-07-15T11:21:38.235Z,41.10
2018-07-15T11:26:35.029Z,42.40
2018-07-15T11:29:03.352Z,43.10
2018-07-15T11:31:31.937Z,43.00
2018-07-15T11:34:00.877Z,43.90
2018-07-15T11:38:57.936Z,43.60
2018-07-15T11:41:26.808Z,41.00
2018-07-15T11:46:23.089Z,41.30
2018-07-15T11:48:51.573Z,41.90
2018-07-15T11:51:19.882Z,43.60
2018-07-15T11:53:48.329Z,42.90
2018-07-15T11:56:19.552Z,43.90
2018-07-15T11:58:51.167Z,42.40
2018-07-15T12:01:21.957Z,42.20
2018-07-15T12:03:50.395Z,42.50
2018-07-15T12:06:18.787Z,43.50
2018-07-15T12:08:47.101Z,44.80
2018-07-15T12:11:15.409Z,43.80
2018-07-15T12:13:43.966Z,44.80
2018-07-15T12:16:12.218Z,45.40
2018-07-15T12:18:40.517Z,44.60
2018-07-15T12:21:08.760Z,43.90
2018-07-15T12:23:37.051Z,44.10
2018-07-15T12:26:05.321Z,44.60
2018-07-15T12:28:33.566Z,44.30
2018-07-15T12:31:01.812Z,45.10
2018-07-15T12:33:30.155Z,45.00
2018-07-15T12:35:58.388Z,45.60
2018-07-15T12:38:26.616Z,45.20
2018-07-15T12:40:54.893Z,42.80
2018-07-15T12:43:23.190Z,42.70
2018-07-15T12:45:51.456Z,42.60
2018-07-15T12:48:19.701Z,42.80
2018-07-15T12:50:47.994Z,43.20
2018-07-15T12:53:16.235Z,43.70
2018-07-15T12:58:12.479Z,44.00
2018-07-15T13:00:40.869Z,44.70
2018-07-15T13:03:09.156Z,44.70
2018-07-15T13:05:37.395Z,43.90
2018-07-15T13:08:05.898Z,42.80
2018-07-15T13:10:34.165Z,40.90
2018-07-15T13:15:30.404Z,38.60
2018-07-15T13:20:26.681Z,37.80
2018-07-15T13:22:55.005Z,36.80
2018-07-15T13:25:23.325Z,35.70
2018-07-15T13:27:51.593Z,35.90
2018-07-15T13:32:47.809Z,36.00
2018-07-15T13:35:16.136Z,36.20
2018-07-15T13:37:44.341Z,36.20
2018-07-15T13:40:12.752Z,35.70
2018-07-15T13:42:41.176Z,35.90
2018-07-15T13:45:09.428Z,35.90
2018-07-15T13:47:37.661Z,35.60
2018-07-15T13:50:05.963Z,35.30
2018-07-15T13:55:02.355Z,35.10
2018-07-15T13:57:30.579Z,35.10
2018-07-15T13:59:58.808Z,35.00
2018-07-15T14:02:27.077Z,34.90
2018-07-15T14:04:55.836Z,34.70
2018-07-15T14:07:24.397Z,34.60
2018-07-15T14:09:52.823Z,34.60
2018-07-15T14:12:21.169Z,34.60
2018-07-15T14:14:49.747Z,34.60
2018-07-15T14:17:18.147Z,34.50
2018-07-15T14:19:46.530Z,34.50
2018-07-15T14:22:14.996Z,34.60
2018-07-15T14:27:11.557Z,34.30
2018-07-15T14:32:08.115Z,34.10
2018-07-15T14:34:36.514Z,34.00
2018-07-15T14:37:04.920Z,33.90
2018-07-15T14:39:39.137Z,33.90
2018-07-15T14:42:08.032Z,34.00
2018-07-15T14:44:38.047Z,34.20
2018-07-15T14:47:06.708Z,34.10
2018-07-15T14:49:35.023Z,33.70
2018-07-15T14:52:03.789Z,32.90
2018-07-15T14:54:32.074Z,32.80
2018-07-15T14:57:00.342Z,33.00
2018-07-15T14:59:28.599Z,33.20
2018-07-15T15:01:57.040Z,33.40
2018-07-15T15:04:25.324Z,33.30
2018-07-15T15:06:53.547Z,33.40
2018-07-15T15:09:21.868Z,33.20
2018-07-15T15:14:18.297Z,33.30
2018-07-15T15:16:46.574Z,33.30
2018-07-15T15:19:14.915Z,33.20
2018-07-15T15:21:43.166Z,33.10
2018-07-15T15:24:11.398Z,33.10
2018-07-15T15:26:39.702Z,33.20
2018-07-15T15:29:07.996Z,33.00
2018-07-15T15:31:36.337Z,32.80
2018-07-15T15:34:04.568Z,32.90
2018-07-15T15:36:32.800Z,33.10
2018-07-15T15:41:29.131Z,32.70
2018-07-15T15:43:57.343Z,32.80
2018-07-15T15:46:25.633Z,32.40
2018-07-15T15:48:53.941Z,32.30
2018-07-15T15:51:22.222Z,32.50
2018-07-15T15:53:50.476Z,32.40
2018-07-15T15:56:18.769Z,32.30
2018-07-15T15:58:47.215Z,32.30
2018-07-15T16:01:15.482Z,32.30
2018-07-15T16:03:43.746Z,32.50
2018-07-15T16:06:12.065Z,32.50
2018-07-15T16:08:40.310Z,32.40
2018-07-15T16:11:08.584Z,32.10
2018-07-15T16:13:36.866Z,32.10
2018-07-15T16:16:05.092Z,31.90
2018-07-15T16:18:33.354Z,32.10
2018-07-15T16:21:01.595Z,32.00
2018-07-15T16:23:29.836Z,31.60
2018-07-15T16:28:26.117Z,31.40
2018-07-15T16:30:54.447Z,31.60
2018-07-15T16:33:22.768Z,31.60
2018-07-15T16:35:51.055Z,31.40
2018-07-15T16:38:19.459Z,31.50
2018-07-15T16:40:47.764Z,31.40
2018-07-15T16:43:15.992Z,31.60
2018-07-15T16:45:44.224Z,31.60
2018-07-15T16:48:12.484Z,31.60
2018-07-15T16:50:40.719Z,31.40
2018-07-15T16:53:08.957Z,31.50
2018-07-15T16:55:37.256Z,31.40
2018-07-15T16:58:05.628Z,31.30
2018-07-15T17:00:33.898Z,31.40
2018-07-15T17:03:02.240Z,31.60
2018-07-15T17:05:30.486Z,31.40
2018-07-15T17:07:58.754Z,31.40
2018-07-15T17:10:27.023Z,31.40
2018-07-15T17:12:55.335Z,31.40
2018-07-15T17:15:23.649Z,31.30
2018-07-15T17:17:51.864Z,31.20
2018-07-15T17:20:20.142Z,31.20
2018-07-15T17:22:48.508Z,31.20
2018-07-15T17:25:16.750Z,31.20
2018-07-15T17:27:45.097Z,31.10
2018-07-15T17:30:13.328Z,30.90
2018-07-15T17:32:41.769Z,30.80
2018-07-15T17:35:10.012Z,30.90
2018-07-15T17:37:38.497Z,30.80
2018-07-15T17:40:07.154Z,30.70
2018-07-15T17:45:04.174Z,30.50
2018-07-15T17:47:33.034Z,30.40
2018-07-15T17:50:06.555Z,30.40
2018-07-15T17:52:35.260Z,30.20
2018-07-15T17:55:03.817Z,30.00
2018-07-15T17:57:32.314Z,30.10
2018-07-15T18:02:29.685Z,30.00
2018-07-15T18:04:58.269Z,30.00
2018-07-15T18:07:26.699Z,30.00
2018-07-15T18:09:55.070Z,29.80
2018-07-15T18:12:23.351Z,29.60
2018-07-15T18:14:51.695Z,29.80
2018-07-15T18:17:20.167Z,29.80
2018-07-15T18:19:48.569Z,29.60
2018-07-15T18:22:16.909Z,29.60
2018-07-15T18:24:45.202Z,29.50
2018-07-15T18:32:09.689Z,29.30
2018-07-15T18:34:38.097Z,29.40
2018-07-15T18:39:34.936Z,29.00
2018-07-15T18:42:03.578Z,29.10
2018-07-15T18:44:31.913Z,29.10
2018-07-15T18:47:00.894Z,29.10
2018-07-15T18:49:29.482Z,29.10
2018-07-15T18:51:58.541Z,29.10
2018-07-15T18:54:27.431Z,29.00
2018-07-15T18:56:56.044Z,28.90
2018-07-15T18:59:26.785Z,28.80
2018-07-15T19:01:55.522Z,28.70
2018-07-15T19:04:24.368Z,28.70
2018-07-15T19:06:52.932Z,28.60
2018-07-15T19:09:21.609Z,28.50
2018-07-15T19:11:50.568Z,28.40
2018-07-15T19:14:19.780Z,28.40
2018-07-15T19:16:47.991Z,28.30
2018-07-15T19:19:16.714Z,28.30
2018-07-15T19:21:45.905Z,28.20
2018-07-15T19:24:14.688Z,28.20
2018-07-15T19:29:12.252Z,28.10
2018-07-15T19:31:40.714Z,28.10
2018-07-15T19:34:09.111Z,28.00
2018-07-15T19:36:37.729Z,28.00
2018-07-15T19:39:07.402Z,27.80
2018-07-15T19:41:36.235Z,27.70
2018-07-15T19:44:05.169Z,27.70
2018-07-15T19:46:33.689Z,27.60
2018-07-15T19:49:02.028Z,27.60
2018-07-15T19:51:30.705Z,27.20
2018-07-15T19:56:27.137Z,27.20
2018-07-15T19:58:55.460Z,27.20
2018-07-15T20:01:23.755Z,27.10
2018-07-15T20:03:52.011Z,27.00
2018-07-15T20:08:48.433Z,26.90
2018-07-15T20:11:16.725Z,26.70
2018-07-15T20:13:45.009Z,26.80
2018-07-15T20:18:41.478Z,26.60
2018-07-15T20:21:09.738Z,26.50
2018-07-15T20:26:06.088Z,26.40
2018-07-15T20:31:02.509Z,26.30
2018-07-15T20:33:30.813Z,26.20
2018-07-15T20:35:59.117Z,26.20
2018-07-15T20:38:27.398Z,26.20
2018-07-15T20:40:56.426Z,26.10
2018-07-15T20:43:24.738Z,25.90
2018-07-15T20:45:53.203Z,25.90
2018-07-15T20:48:21.507Z,25.80
2018-07-15T20:50:49.823Z,25.80
2018-07-15T20:53:18.132Z,25.70
2018-07-15T20:55:46.446Z,25.70
2018-07-15T20:58:15.020Z,25.70
2018-07-15T21:00:43.354Z,25.60
2018-07-15T21:03:11.687Z,25.60
2018-07-15T21:05:40.609Z,25.50
2018-07-15T21:08:08.965Z,25.40
2018-07-15T21:10:37.275Z,25.40
2018-07-15T21:13:05.643Z,25.30
2018-07-15T21:15:33.954Z,25.20
2018-07-15T21:18:02.235Z,25.10
2018-07-15T21:20:30.498Z,24.90
2018-07-15T21:22:58.779Z,24.90
2018-07-15T21:25:27.082Z,24.90
2018-07-15T21:27:55.936Z,24.70
2018-07-15T21:30:24.230Z,24.60
2018-07-15T21:32:58.799Z,24.50
2018-07-15T21:35:27.087Z,24.40
2018-07-15T21:37:55.442Z,24.30
2018-07-15T21:40:23.718Z,24.20
2018-07-15T21:42:52.263Z,24.10
2018-07-15T21:45:20.540Z,24.00
2018-07-15T21:47:48.817Z,24.10
2018-07-15T21:50:17.057Z,24.10
2018-07-15T21:52:45.325Z,24.00
2018-07-15T21:55:13.557Z,23.90
2018-07-15T21:57:41.863Z,23.80
2018-07-15T22:00:10.136Z,23.80
2018-07-15T22:02:38.405Z,23.80
2018-07-15T22:05:06.711Z,23.70
2018-07-15T22:07:46.401Z,23.50
2018-07-15T22:10:27.539Z,23.50
2018-07-15T22:12:55.773Z,23.40
2018-07-15T22:15:24.020Z,23.40
2018-07-15T22:17:52.312Z,23.30
2018-07-15T22:20:20.549Z,23.40
2018-07-15T22:22:48.843Z,23.30
2018-07-15T22:25:17.068Z,23.20
2018-07-15T22:27:45.407Z,23.10
2018-07-15T22:32:41.642Z,23.00
2018-07-15T22:35:09.944Z,22.90
2018-07-15T22:37:38.300Z,22.90
2018-07-15T22:40:06.596Z,22.90
2018-07-15T22:42:34.958Z,22.70
2018-07-15T22:45:03.234Z,22.70
2018-07-15T22:47:31.506Z,22.70
2018-07-15T22:49:59.889Z,22.50
2018-07-15T22:54:56.157Z,22.50
2018-07-15T22:57:24.487Z,22.50
2018-07-15T22:59:52.819Z,22.50
2018-07-15T23:02:21.145Z,22.40
2018-07-15T23:05:59.377Z,22.30
2018-07-15T23:08:29.175Z,22.30
2018-07-15T23:15:54.990Z,22.00
2018-07-15T23:18:23.263Z,21.90
2018-07-15T23:20:51.921Z,21.90
2018-07-15T23:23:20.170Z,21.90
2018-07-15T23:25:48.427Z,21.80
2018-07-15T23:28:17.503Z,21.90
2018-07-15T23:30:46.164Z,21.90
2018-07-15T23:33:14.471Z,21.80
2018-07-15T23:35:42.752Z,21.80
2018-07-15T23:38:10.983Z,21.80
2018-07-15T23:40:39.258Z,21.80
2018-07-15T23:43:07.505Z,21.70
2018-07-15T23:45:36.463Z,21.80
2018-07-15T23:48:04.827Z,21.70
2018-07-15T23:50:33.065Z,21.70
2018-07-15T23:53:01.296Z,21.70
2018-07-15T23:55:29.539Z,21.50
2018-07-15T23:57:57.847Z,21.50
